Abbeville, Mississippi
Current Conditions -  °F | °C
As of 7:55 PM on Thursday 20 Nov 2014 (Local Time) from KUOX Reporting Station
Clear Clear  
Wind Chill: 41°   Ceiling: Unl
Heat Index: 41°   Visibility: 10mi
Dew Point: 34°   Wind: 3mph
Humidity: 76%   Direction: 110°ESE
Pressure: 30.22"   Gusts: NA
Location:  34.5°N, 89.5°W
Report Text: KUOX 210155Z AUTO 11003KT 10SM CLR 05/01 A3022 RMK AO2 PWINO PNO
Loading
Personal Weather Stations






























Interactive Weather Map New forecast layout! Learn more

10-Day Weather Forecast

Advertisements
Track Severe Weather on mobile